sensor_id;sensor_type;location;lat;lon;timestamp;pressure;altitude;pressure_sealevel;temperature;humidity
28701;BME280;15877;52.344;16.790;2023-02-13T00:00:09;102651.98;;;8.60;78.25
28701;BME280;15877;52.344;16.790;2023-02-13T00:03:04;102649.08;;;8.54;78.63
28701;BME280;15877;52.344;16.790;2023-02-13T00:05:39;102649.00;;;8.60;78.59
28701;BME280;15877;52.344;16.790;2023-02-13T00:08:17;102648.69;;;8.66;78.33
28701;BME280;15877;52.344;16.790;2023-02-13T00:10:50;102644.94;;;8.65;78.27
28701;BME280;15877;52.344;16.790;2023-02-13T00:13:22;102643.82;;;8.66;77.94
28701;BME280;15877;52.344;16.790;2023-02-13T00:16:00;102638.17;;;8.70;77.69
28701;BME280;15877;52.344;16.790;2023-02-13T00:18:36;102638.35;;;8.65;77.81
28701;BME280;15877;52.344;16.790;2023-02-13T00:21:11;102641.35;;;8.69;77.60
28701;BME280;15877;52.344;16.790;2023-02-13T00:23:44;102645.77;;;8.65;77.39
28701;BME280;15877;52.344;16.790;2023-02-13T00:26:17;102643.70;;;8.62;77.58
28701;BME280;15877;52.344;16.790;2023-02-13T00:28:50;102639.37;;;8.67;77.77
28701;BME280;15877;52.344;16.790;2023-02-13T00:31:23;102641.98;;;8.75;77.74
28701;BME280;15877;52.344;16.790;2023-02-13T00:33:56;102632.64;;;8.72;77.78
28701;BME280;15877;52.344;16.790;2023-02-13T00:36:30;102631.83;;;8.70;77.90
28701;BME280;15877;52.344;16.790;2023-02-13T00:39:03;102634.88;;;8.63;78.35
28701;BME280;15877;52.344;16.790;2023-02-13T00:41:36;102638.83;;;8.66;78.55
28701;BME280;15877;52.344;16.790;2023-02-13T00:44:09;102636.23;;;8.64;79.06
28701;BME280;15877;52.344;16.790;2023-02-13T00:46:42;102633.81;;;8.47;80.03
28701;BME280;15877;52.344;16.790;2023-02-13T00:49:16;102631.85;;;8.41;80.51
28701;BME280;15877;52.344;16.790;2023-02-13T00:51:49;102633.41;;;8.43;80.83
28701;BME280;15877;52.344;16.790;2023-02-13T00:54:22;102633.17;;;8.41;81.42
28701;BME280;15877;52.344;16.790;2023-02-13T00:56:55;102634.64;;;8.35;81.78
28701;BME280;15877;52.344;16.790;2023-02-13T00:59:28;102634.59;;;8.39;81.91
28701;BME280;15877;52.344;16.790;2023-02-13T01:02:02;102634.67;;;8.37;82.11
28701;BME280;15877;52.344;16.790;2023-02-13T01:04:35;102636.82;;;8.27;82.73
28701;BME280;15877;52.344;16.790;2023-02-13T01:07:08;102636.34;;;8.26;83.00
28701;BME280;15877;52.344;16.790;2023-02-13T01:09:41;102634.02;;;8.22;83.30
28701;BME280;15877;52.344;16.790;2023-02-13T01:12:17;102624.02;;;8.23;83.45
28701;BME280;15877;52.344;16.790;2023-02-13T01:14:50;102626.30;;;8.22;83.51
28701;BME280;15877;52.344;16.790;2023-02-13T01:17:23;102630.91;;;8.31;83.26
28701;BME280;15877;52.344;16.790;2023-02-13T01:19:57;102634.44;;;8.33;83.17
28701;BME280;15877;52.344;16.790;2023-02-13T01:22:31;102629.38;;;8.39;82.76
28701;BME280;15877;52.344;16.790;2023-02-13T01:25:06;102625.11;;;8.38;82.92
28701;BME280;15877;52.344;16.790;2023-02-13T01:27:39;102625.08;;;8.46;82.73
28701;BME280;15877;52.344;16.790;2023-02-13T01:30:14;102622.31;;;8.41;82.82
28701;BME280;15877;52.344;16.790;2023-02-13T01:32:48;102620.63;;;8.43;82.83
28701;BME280;15877;52.344;16.790;2023-02-13T01:35:21;102614.75;;;8.43;82.79
28701;BME280;15877;52.344;16.790;2023-02-13T01:37:54;102612.10;;;8.42;82.82
28701;BME280;15877;52.344;16.790;2023-02-13T01:40:27;102613.57;;;8.40;82.69
28701;BME280;15877;52.344;16.790;2023-02-13T01:43:00;102617.92;;;8.18;83.79
28701;BME280;15877;52.344;16.790;2023-02-13T01:45:32;102610.17;;;8.22;84.08
28701;BME280;15877;52.344;16.790;2023-02-13T01:48:06;102611.20;;;8.31;83.80
28701;BME280;15877;52.344;16.790;2023-02-13T01:50:45;102615.55;;;8.33;83.57
28701;BME280;15877;52.344;16.790;2023-02-13T01:53:21;102611.43;;;8.24;83.90
28701;BME280;15877;52.344;16.790;2023-02-13T01:55:59;102602.91;;;8.29;83.62
28701;BME280;15877;52.344;16.790;2023-02-13T01:58:36;102606.65;;;8.31;83.73
28701;BME280;15877;52.344;16.790;2023-02-13T02:01:11;102604.42;;;8.26;83.77
28701;BME280;15877;52.344;16.790;2023-02-13T02:03:46;102603.47;;;8.28;83.82
28701;BME280;15877;52.344;16.790;2023-02-13T02:06:22;102603.58;;;8.42;83.25
28701;BME280;15877;52.344;16.790;2023-02-13T02:09:00;102601.37;;;8.32;83.39
28701;BME280;15877;52.344;16.790;2023-02-13T02:11:38;102598.86;;;8.25;83.64
28701;BME280;15877;52.344;16.790;2023-02-13T02:14:14;102596.84;;;8.27;83.46
28701;BME280;15877;52.344;16.790;2023-02-13T02:16:48;102595.02;;;8.26;83.54
28701;BME280;15877;52.344;16.790;2023-02-13T02:19:29;102594.98;;;8.19;84.05
28701;BME280;15877;52.344;16.790;2023-02-13T02:25:37;102582.99;;;8.39;83.25
28701;BME280;15877;52.344;16.790;2023-02-13T02:28:45;102582.61;;;8.37;82.89
28701;BME280;15877;52.344;16.790;2023-02-13T02:34:38;102555.19;;;8.26;82.56
28701;BME280;15877;52.344;16.790;2023-02-13T02:37:30;102569.91;;;8.15;83.25
28701;BME280;15877;52.344;16.790;2023-02-13T02:40:14;102583.70;;;8.23;83.63
28701;BME280;15877;52.344;16.790;2023-02-13T02:42:59;102585.60;;;8.31;83.39
28701;BME280;15877;52.344;16.790;2023-02-13T02:45:36;102580.39;;;8.32;83.17
28701;BME280;15877;52.344;16.790;2023-02-13T02:48:20;102582.34;;;8.35;83.01
28701;BME280;15877;52.344;16.790;2023-02-13T02:51:18;102581.70;;;8.24;83.42
28701;BME280;15877;52.344;16.790;2023-02-13T02:54:01;102575.30;;;8.17;83.85
28701;BME280;15877;52.344;16.790;2023-02-13T02:56:59;102572.32;;;8.16;84.25
28701;BME280;15877;52.344;16.790;2023-02-13T02:59:36;102572.23;;;8.23;84.01
28701;BME280;15877;52.344;16.790;2023-02-13T03:02:29;102568.13;;;8.23;83.90
28701;BME280;15877;52.344;16.790;2023-02-13T03:05:23;102570.30;;;8.27;83.88
28701;BME280;15877;52.344;16.790;2023-02-13T03:08:29;102570.81;;;8.32;83.54
28701;BME280;15877;52.344;16.790;2023-02-13T03:11:15;102574.61;;;8.33;83.54
28701;BME280;15877;52.344;16.790;2023-02-13T03:14:07;102571.61;;;8.41;83.19
28701;BME280;15877;52.344;16.790;2023-02-13T03:16:43;102576.96;;;8.51;82.91
28701;BME280;15877;52.344;16.790;2023-02-13T03:19:42;102582.20;;;8.54;82.66
28701;BME280;15877;52.344;16.790;2023-02-13T03:22:41;102574.25;;;8.47;83.03
28701;BME280;15877;52.344;16.790;2023-02-13T03:25:24;102565.27;;;8.44;83.41
28701;BME280;15877;52.344;16.790;2023-02-13T03:28:10;102564.33;;;8.39;83.74
28701;BME280;15877;52.344;16.790;2023-02-13T03:31:07;102554.89;;;8.32;84.28
28701;BME280;15877;52.344;16.790;2023-02-13T03:33:55;102562.14;;;8.30;84.28
28701;BME280;15877;52.344;16.790;2023-02-13T03:36:36;102564.69;;;8.33;84.48
28701;BME280;15877;52.344;16.790;2023-02-13T03:39:37;102568.83;;;8.55;83.57
28701;BME280;15877;52.344;16.790;2023-02-13T03:42:26;102562.61;;;8.59;82.86
28701;BME280;15877;52.344;16.790;2023-02-13T03:45:04;102564.70;;;8.65;82.65
28701;BME280;15877;52.344;16.790;2023-02-13T03:47:58;102564.91;;;8.53;83.21
28701;BME280;15877;52.344;16.790;2023-02-13T03:50:43;102573.81;;;8.55;83.35
28701;BME280;15877;52.344;16.790;2023-02-13T03:53:16;102571.14;;;8.59;83.46
28701;BME280;15877;52.344;16.790;2023-02-13T03:55:51;102564.68;;;8.62;83.31
28701;BME280;15877;52.344;16.790;2023-02-13T03:58:45;102566.30;;;8.61;83.41
28701;BME280;15877;52.344;16.790;2023-02-13T04:01:37;102564.80;;;8.61;83.49
28701;BME280;15877;52.344;16.790;2023-02-13T04:04:12;102566.34;;;8.62;83.50
28701;BME280;15877;52.344;16.790;2023-02-13T04:06:51;102561.05;;;8.67;83.35
28701;BME280;15877;52.344;16.790;2023-02-13T04:09:27;102563.14;;;8.75;83.07
28701;BME280;15877;52.344;16.790;2023-02-13T04:12:08;102567.08;;;8.72;83.11
28701;BME280;15877;52.344;16.790;2023-02-13T04:14:56;102563.83;;;8.67;83.56
28701;BME280;15877;52.344;16.790;2023-02-13T04:17:35;102560.49;;;8.67;83.57
28701;BME280;15877;52.344;16.790;2023-02-13T04:20:10;102558.96;;;8.67;83.92
28701;BME280;15877;52.344;16.790;2023-02-13T04:22:44;102556.64;;;8.66;84.23
28701;BME280;15877;52.344;16.790;2023-02-13T04:25:18;102561.75;;;8.66;84.34
28701;BME280;15877;52.344;16.790;2023-02-13T04:27:51;102549.29;;;8.53;84.66
28701;BME280;15877;52.344;16.790;2023-02-13T04:30:24;102563.60;;;8.60;85.02
28701;BME280;15877;52.344;16.790;2023-02-13T04:32:58;102567.89;;;8.66;84.98
28701;BME280;15877;52.344;16.790;2023-02-13T04:35:31;102566.56;;;8.69;85.05
28701;BME280;15877;52.344;16.790;2023-02-13T04:38:04;102567.27;;;8.77;84.71
28701;BME280;15877;52.344;16.790;2023-02-13T04:40:40;102572.69;;;8.71;84.95
28701;BME280;15877;52.344;16.790;2023-02-13T04:43:13;102578.55;;;8.69;85.32
28701;BME280;15877;52.344;16.790;2023-02-13T04:45:50;102575.98;;;8.76;84.95
28701;BME280;15877;52.344;16.790;2023-02-13T04:48:23;102578.42;;;8.73;85.17
28701;BME280;15877;52.344;16.790;2023-02-13T04:50:56;102574.04;;;8.76;85.00
28701;BME280;15877;52.344;16.790;2023-02-13T04:53:30;102570.08;;;8.71;85.23
28701;BME280;15877;52.344;16.790;2023-02-13T04:56:03;102571.03;;;8.71;85.34
28701;BME280;15877;52.344;16.790;2023-02-13T04:58:36;102563.48;;;8.71;85.44
28701;BME280;15877;52.344;16.790;2023-02-13T05:01:13;102560.64;;;8.76;85.29
28701;BME280;15877;52.344;16.790;2023-02-13T05:03:49;102564.55;;;8.75;85.25
28701;BME280;15877;52.344;16.790;2023-02-13T05:06:21;102567.42;;;8.78;85.07
28701;BME280;15877;52.344;16.790;2023-02-13T05:08:54;102575.21;;;8.83;84.78
28701;BME280;15877;52.344;16.790;2023-02-13T05:11:27;102576.45;;;8.79;84.90
28701;BME280;15877;52.344;16.790;2023-02-13T05:14:00;102556.73;;;8.68;85.12
28701;BME280;15877;52.344;16.790;2023-02-13T05:16:32;102582.33;;;8.78;85.14
28701;BME280;15877;52.344;16.790;2023-02-13T05:19:05;102582.73;;;8.77;85.06
28701;BME280;15877;52.344;16.790;2023-02-13T05:21:38;102590.25;;;8.76;85.17
28701;BME280;15877;52.344;16.790;2023-02-13T05:24:28;102588.27;;;8.78;85.19
28701;BME280;15877;52.344;16.790;2023-02-13T05:27:01;102589.23;;;8.77;85.05
28701;BME280;15877;52.344;16.790;2023-02-13T05:29:34;102588.91;;;8.79;85.05
28701;BME280;15877;52.344;16.790;2023-02-13T05:32:06;102590.38;;;8.78;85.01
28701;BME280;15877;52.344;16.790;2023-02-13T05:34:39;102592.96;;;8.80;84.93
28701;BME280;15877;52.344;16.790;2023-02-13T05:37:12;102591.20;;;8.82;84.91
28701;BME280;15877;52.344;16.790;2023-02-13T05:39:45;102585.73;;;8.82;84.97
28701;BME280;15877;52.344;16.790;2023-02-13T05:42:17;102587.95;;;8.85;84.69
28701;BME280;15877;52.344;16.790;2023-02-13T05:44:50;102589.02;;;8.80;84.86
28701;BME280;15877;52.344;16.790;2023-02-13T05:47:33;102593.86;;;8.74;85.19
28701;BME280;15877;52.344;16.790;2023-02-13T05:50:32;102593.75;;;8.76;85.09
28701;BME280;15877;52.344;16.790;2023-02-13T05:53:05;102599.66;;;8.77;85.14
28701;BME280;15877;52.344;16.790;2023-02-13T05:55:39;102596.71;;;8.84;84.76
28701;BME280;15877;52.344;16.790;2023-02-13T05:58:13;102601.11;;;8.76;84.76
28701;BME280;15877;52.344;16.790;2023-02-13T06:00:46;102602.54;;;8.72;84.87
28701;BME280;15877;52.344;16.790;2023-02-13T06:03:19;102611.30;;;8.73;85.01
28701;BME280;15877;52.344;16.790;2023-02-13T06:05:52;102607.61;;;8.71;85.02
28701;BME280;15877;52.344;16.790;2023-02-13T06:08:26;102611.70;;;8.76;84.92
28701;BME280;15877;52.344;16.790;2023-02-13T06:10:59;102594.91;;;8.63;84.74
28701;BME280;15877;52.344;16.790;2023-02-13T06:13:32;102610.60;;;8.79;84.49
28701;BME280;15877;52.344;16.790;2023-02-13T06:16:05;102610.29;;;8.73;84.31
28701;BME280;15877;52.344;16.790;2023-02-13T06:18:38;102612.11;;;8.70;84.48
28701;BME280;15877;52.344;16.790;2023-02-13T06:21:11;102618.30;;;8.67;84.32
28701;BME280;15877;52.344;16.790;2023-02-13T06:23:43;102618.54;;;8.70;84.22
28701;BME280;15877;52.344;16.790;2023-02-13T06:26:19;102623.07;;;8.68;84.14
28701;BME280;15877;52.344;16.790;2023-02-13T06:28:53;102611.80;;;8.60;83.26
28701;BME280;15877;52.344;16.790;2023-02-13T06:31:25;102626.91;;;8.66;83.08
28701;BME280;15877;52.344;16.790;2023-02-13T06:33:59;102630.27;;;8.66;83.21
28701;BME280;15877;52.344;16.790;2023-02-13T06:36:32;102613.05;;;8.51;83.09
28701;BME280;15877;52.344;16.790;2023-02-13T06:39:05;102629.03;;;8.69;82.95
28701;BME280;15877;52.344;16.790;2023-02-13T06:41:39;102630.44;;;8.68;82.92
28701;BME280;15877;52.344;16.790;2023-02-13T06:44:12;102632.75;;;8.76;82.44
28701;BME280;15877;52.344;16.790;2023-02-13T06:46:45;102636.66;;;8.71;82.45
28701;BME280;15877;52.344;16.790;2023-02-13T06:49:18;102632.37;;;8.68;82.28
28701;BME280;15877;52.344;16.790;2023-02-13T06:51:51;102640.25;;;8.75;81.77
28701;BME280;15877;52.344;16.790;2023-02-13T06:54:25;102646.06;;;8.68;81.91
28701;BME280;15877;52.344;16.790;2023-02-13T06:57:17;102650.48;;;8.68;82.15
28701;BME280;15877;52.344;16.790;2023-02-13T06:59:53;102647.11;;;8.72;82.01
28701;BME280;15877;52.344;16.790;2023-02-13T07:02:26;102646.06;;;8.69;82.32
28701;BME280;15877;52.344;16.790;2023-02-13T07:04:59;102649.56;;;8.75;82.31
28701;BME280;15877;52.344;16.790;2023-02-13T07:07:34;102654.73;;;8.75;82.35
28701;BME280;15877;52.344;16.790;2023-02-13T07:10:11;102657.71;;;8.71;82.64
28701;BME280;15877;52.344;16.790;2023-02-13T07:12:44;102656.13;;;8.74;82.60
28701;BME280;15877;52.344;16.790;2023-02-13T07:15:35;102659.46;;;8.77;82.36
28701;BME280;15877;52.344;16.790;2023-02-13T07:18:08;102661.20;;;8.77;82.22
28701;BME280;15877;52.344;16.790;2023-02-13T07:20:41;102661.86;;;8.72;82.15
28701;BME280;15877;52.344;16.790;2023-02-13T07:23:14;102642.19;;;8.60;82.34
28701;BME280;15877;52.344;16.790;2023-02-13T07:25:46;102664.48;;;8.74;81.74
28701;BME280;15877;52.344;16.790;2023-02-13T07:28:19;102659.52;;;8.73;81.11
28701;BME280;15877;52.344;16.790;2023-02-13T07:30:51;102664.84;;;8.73;80.68
28701;BME280;15877;52.344;16.790;2023-02-13T07:33:26;102663.66;;;8.77;80.06
28701;BME280;15877;52.344;16.790;2023-02-13T07:35:59;102650.44;;;8.72;79.26
28701;BME280;15877;52.344;16.790;2023-02-13T07:38:32;102666.92;;;8.82;78.98
28701;BME280;15877;52.344;16.790;2023-02-13T07:41:04;102671.27;;;8.81;78.69
28701;BME280;15877;52.344;16.790;2023-02-13T07:43:37;102671.20;;;8.81;78.32
28701;BME280;15877;52.344;16.790;2023-02-13T07:46:10;102672.05;;;8.81;77.82
28701;BME280;15877;52.344;16.790;2023-02-13T07:48:43;102670.37;;;8.70;77.57
28701;BME280;15877;52.344;16.790;2023-02-13T07:51:16;102670.13;;;8.72;77.43
28701;BME280;15877;52.344;16.790;2023-02-13T07:53:48;102665.96;;;8.76;77.18
28701;BME280;15877;52.344;16.790;2023-02-13T07:56:21;102668.13;;;8.75;76.54
28701;BME280;15877;52.344;16.790;2023-02-13T07:58:54;102664.69;;;8.72;76.30
28701;BME280;15877;52.344;16.790;2023-02-13T08:01:26;102666.43;;;8.70;75.78
28701;BME280;15877;52.344;16.790;2023-02-13T08:03:59;102663.22;;;8.65;75.38
28701;BME280;15877;52.344;16.790;2023-02-13T08:06:32;102662.89;;;8.61;75.56
28701;BME280;15877;52.344;16.790;2023-02-13T08:09:05;102664.44;;;8.62;75.85
28701;BME280;15877;52.344;16.790;2023-02-13T08:11:55;102667.68;;;8.72;75.11
28701;BME280;15877;52.344;16.790;2023-02-13T08:14:28;102666.26;;;8.75;74.83
28701;BME280;15877;52.344;16.790;2023-02-13T08:17:01;102671.15;;;8.78;74.68
28701;BME280;15877;52.344;16.790;2023-02-13T08:19:34;102668.02;;;8.79;74.37
28701;BME280;15877;52.344;16.790;2023-02-13T08:22:07;102668.71;;;8.73;73.91
28701;BME280;15877;52.344;16.790;2023-02-13T08:24:40;102665.02;;;8.69;73.87
28701;BME280;15877;52.344;16.790;2023-02-13T08:27:14;102664.48;;;8.59;73.81
28701;BME280;15877;52.344;16.790;2023-02-13T08:29:49;102667.25;;;8.62;74.17
28701;BME280;15877;52.344;16.790;2023-02-13T08:32:21;102665.29;;;8.64;73.64
28701;BME280;15877;52.344;16.790;2023-02-13T08:34:54;102667.77;;;8.66;74.12
28701;BME280;15877;52.344;16.790;2023-02-13T08:37:27;102661.77;;;8.71;73.98
28701;BME280;15877;52.344;16.790;2023-02-13T08:40:03;102665.83;;;8.74;73.79
28701;BME280;15877;52.344;16.790;2023-02-13T08:42:36;102650.68;;;8.66;73.94
28701;BME280;15877;52.344;16.790;2023-02-13T08:45:10;102669.62;;;8.80;73.62
28701;BME280;15877;52.344;16.790;2023-02-13T08:47:43;102666.83;;;8.77;73.59
28701;BME280;15877;52.344;16.790;2023-02-13T08:50:15;102667.27;;;8.81;73.64
28701;BME280;15877;52.344;16.790;2023-02-13T08:52:48;102662.92;;;8.84;73.04
28701;BME280;15877;52.344;16.790;2023-02-13T08:55:22;102664.91;;;8.84;73.31
28701;BME280;15877;52.344;16.790;2023-02-13T08:57:54;102649.40;;;8.67;73.25
28701;BME280;15877;52.344;16.790;2023-02-13T09:00:27;102662.72;;;8.82;73.10
28701;BME280;15877;52.344;16.790;2023-02-13T09:03:02;102662.30;;;8.84;73.26
28701;BME280;15877;52.344;16.790;2023-02-13T09:05:39;102660.81;;;8.84;73.31
28701;BME280;15877;52.344;16.790;2023-02-13T09:08:12;102656.70;;;8.84;73.33
28701;BME280;15877;52.344;16.790;2023-02-13T09:10:54;102661.30;;;8.77;73.77
28701;BME280;15877;52.344;16.790;2023-02-13T09:13:28;102663.29;;;8.74;74.32
28701;BME280;15877;52.344;16.790;2023-02-13T09:16:05;102662.83;;;8.79;74.30
28701;BME280;15877;52.344;16.790;2023-02-13T09:18:38;102657.77;;;8.80;74.39
28701;BME280;15877;52.344;16.790;2023-02-13T09:21:12;102660.35;;;8.85;73.99
28701;BME280;15877;52.344;16.790;2023-02-13T09:23:44;102661.54;;;8.80;74.05
28701;BME280;15877;52.344;16.790;2023-02-13T09:26:18;102657.80;;;8.76;74.31
28701;BME280;15877;52.344;16.790;2023-02-13T09:28:51;102663.55;;;8.70;74.57
28701;BME280;15877;52.344;16.790;2023-02-13T09:31:24;102662.06;;;8.78;74.36
28701;BME280;15877;52.344;16.790;2023-02-13T09:33:59;102664.28;;;8.78;74.34
28701;BME280;15877;52.344;16.790;2023-02-13T09:36:33;102664.77;;;8.78;74.20
28701;BME280;15877;52.344;16.790;2023-02-13T09:39:06;102661.95;;;8.74;74.63
28701;BME280;15877;52.344;16.790;2023-02-13T09:41:41;102664.08;;;8.73;74.62
28701;BME280;15877;52.344;16.790;2023-02-13T09:44:17;102652.86;;;8.65;74.75
28701;BME280;15877;52.344;16.790;2023-02-13T09:47:10;102666.63;;;8.84;74.57
28701;BME280;15877;52.344;16.790;2023-02-13T09:49:47;102662.29;;;8.89;74.34
28701;BME280;15877;52.344;16.790;2023-02-13T09:52:23;102670.40;;;8.88;74.50
28701;BME280;15877;52.344;16.790;2023-02-13T09:54:57;102668.48;;;8.87;74.36
28701;BME280;15877;52.344;16.790;2023-02-13T09:57:34;102662.47;;;8.88;74.58
28701;BME280;15877;52.344;16.790;2023-02-13T10:00:14;102663.33;;;8.86;74.56
28701;BME280;15877;52.344;16.790;2023-02-13T10:03:07;102661.59;;;8.79;75.03
28701;BME280;15877;52.344;16.790;2023-02-13T10:05:49;102661.20;;;8.88;74.78
28701;BME280;15877;52.344;16.790;2023-02-13T10:08:43;102663.19;;;8.95;74.42
28701;BME280;15877;52.344;16.790;2023-02-13T10:14:18;102663.05;;;8.91;74.50
28701;BME280;15877;52.344;16.790;2023-02-13T10:16:54;102670.98;;;8.93;74.29
28701;BME280;15877;52.344;16.790;2023-02-13T10:19:36;102655.58;;;8.66;74.62
28701;BME280;15877;52.344;16.790;2023-02-13T10:22:14;102669.15;;;8.93;74.24
28701;BME280;15877;52.344;16.790;2023-02-13T10:24:50;102662.84;;;8.93;73.66
28701;BME280;15877;52.344;16.790;2023-02-13T10:27:27;102666.73;;;8.89;73.31
28701;BME280;15877;52.344;16.790;2023-02-13T10:30:06;102659.30;;;8.99;72.77
28701;BME280;15877;52.344;16.790;2023-02-13T10:33:00;102663.85;;;8.92;72.81
28701;BME280;15877;52.344;16.790;2023-02-13T10:35:55;102663.63;;;8.96;71.92
28701;BME280;15877;52.344;16.790;2023-02-13T10:38:32;102655.83;;;8.92;71.46
28701;BME280;15877;52.344;16.790;2023-02-13T10:41:23;102658.14;;;8.96;71.28
28701;BME280;15877;52.344;16.790;2023-02-13T10:44:11;102642.59;;;8.86;71.09
28701;BME280;15877;52.344;16.790;2023-02-13T10:46:53;102647.55;;;9.06;70.66
28701;BME280;15877;52.344;16.790;2023-02-13T10:49:41;102652.13;;;8.97;70.50
28701;BME280;15877;52.344;16.790;2023-02-13T10:52:27;102652.02;;;8.95;70.40
28701;BME280;15877;52.344;16.790;2023-02-13T10:55:17;102656.88;;;9.07;70.47
28701;BME280;15877;52.344;16.790;2023-02-13T10:58:04;102659.85;;;9.04;70.80
28701;BME280;15877;52.344;16.790;2023-02-13T11:00:45;102642.89;;;8.95;71.14
28701;BME280;15877;52.344;16.790;2023-02-13T11:03:22;102647.11;;;9.13;71.01
28701;BME280;15877;52.344;16.790;2023-02-13T11:05:56;102645.08;;;9.12;71.33
28701;BME280;15877;52.344;16.790;2023-02-13T11:08:35;102645.76;;;9.04;71.96
28701;BME280;15877;52.344;16.790;2023-02-13T11:11:29;102644.69;;;9.05;72.14
28701;BME280;15877;52.344;16.790;2023-02-13T11:14:11;102648.02;;;9.01;72.50
28701;BME280;15877;52.344;16.790;2023-02-13T11:16:56;102646.61;;;8.95;72.71
28701;BME280;15877;52.344;16.790;2023-02-13T11:19:36;102639.40;;;8.99;72.73
28701;BME280;15877;52.344;16.790;2023-02-13T11:22:13;102628.37;;;8.88;73.17
28701;BME280;15877;52.344;16.790;2023-02-13T11:24:54;102640.33;;;8.97;73.10
28701;BME280;15877;52.344;16.790;2023-02-13T11:27:32;102640.87;;;9.01;73.01
28701;BME280;15877;52.344;16.790;2023-02-13T11:30:12;102645.48;;;9.00;72.93
28701;BME280;15877;52.344;16.790;2023-02-13T11:33:02;102636.84;;;9.11;72.54
28701;BME280;15877;52.344;16.790;2023-02-13T11:35:36;102639.63;;;9.06;72.32
28701;BME280;15877;52.344;16.790;2023-02-13T11:38:21;102638.09;;;8.98;72.34
28701;BME280;15877;52.344;16.790;2023-02-13T11:41:06;102630.37;;;8.91;72.50
28701;BME280;15877;52.344;16.790;2023-02-13T11:43:45;102626.98;;;8.96;72.25
28701;BME280;15877;52.344;16.790;2023-02-13T11:46:21;102627.35;;;8.93;72.30
28701;BME280;15877;52.344;16.790;2023-02-13T11:49:00;102621.58;;;9.07;71.80
28701;BME280;15877;52.344;16.790;2023-02-13T11:51:42;102608.82;;;9.01;71.41
28701;BME280;15877;52.344;16.790;2023-02-13T11:54:31;102626.83;;;9.13;71.01
28701;BME280;15877;52.344;16.790;2023-02-13T11:57:20;102626.28;;;9.12;70.98
28701;BME280;15877;52.344;16.790;2023-02-13T11:59:53;102616.83;;;9.04;70.63
28701;BME280;15877;52.344;16.790;2023-02-13T12:02:27;102618.62;;;9.06;70.50
28701;BME280;15877;52.344;16.790;2023-02-13T12:05:15;102620.37;;;8.97;69.98
28701;BME280;15877;52.344;16.790;2023-02-13T12:07:49;102610.23;;;8.92;70.21
28701;BME280;15877;52.344;16.790;2023-02-13T12:10:25;102610.84;;;8.92;70.16
28701;BME280;15877;52.344;16.790;2023-02-13T12:13:03;102613.33;;;9.00;70.05
28701;BME280;15877;52.344;16.790;2023-02-13T12:15:39;102619.20;;;9.04;69.82
28701;BME280;15877;52.344;16.790;2023-02-13T12:18:18;102624.52;;;9.04;69.25
28701;BME280;15877;52.344;16.790;2023-02-13T12:20:59;102623.44;;;9.09;69.13
28701;BME280;15877;52.344;16.790;2023-02-13T12:23:43;102624.94;;;8.95;69.07
28701;BME280;15877;52.344;16.790;2023-02-13T12:26:34;102617.98;;;8.93;69.36
28701;BME280;15877;52.344;16.790;2023-02-13T12:29:37;102620.24;;;9.04;69.43
28701;BME280;15877;52.344;16.790;2023-02-13T12:32:20;102617.80;;;9.08;69.27
28701;BME280;15877;52.344;16.790;2023-02-13T12:35:24;102618.33;;;8.92;69.89
28701;BME280;15877;52.344;16.790;2023-02-13T12:38:03;102618.72;;;9.00;70.19
28701;BME280;15877;52.344;16.790;2023-02-13T12:41:04;102612.79;;;9.02;69.92
28701;BME280;15877;52.344;16.790;2023-02-13T12:44:09;102611.94;;;9.04;70.19
28701;BME280;15877;52.344;16.790;2023-02-13T12:46:53;102610.94;;;8.97;70.57
28701;BME280;15877;52.344;16.790;2023-02-13T12:52:45;102608.70;;;8.98;70.66
28701;BME280;15877;52.344;16.790;2023-02-13T12:55:33;102603.83;;;9.01;70.37
28701;BME280;15877;52.344;16.790;2023-02-13T12:58:20;102595.80;;;8.93;70.50
28701;BME280;15877;52.344;16.790;2023-02-13T13:01:03;102592.80;;;8.90;70.68
28701;BME280;15877;52.344;16.790;2023-02-13T13:03:48;102582.81;;;8.83;70.89
28701;BME280;15877;52.344;16.790;2023-02-13T13:06:39;102574.77;;;8.87;70.87
28701;BME280;15877;52.344;16.790;2023-02-13T13:12:19;102574.94;;;8.94;70.36
28701;BME280;15877;52.344;16.790;2023-02-13T13:15:03;102557.48;;;8.80;70.50
28701;BME280;15877;52.344;16.790;2023-02-13T13:17:48;102566.39;;;8.88;70.51
28701;BME280;15877;52.344;16.790;2023-02-13T13:23:45;102572.21;;;8.91;70.39
28701;BME280;15877;52.344;16.790;2023-02-13T13:26:24;102569.48;;;8.88;70.66
28701;BME280;15877;52.344;16.790;2023-02-13T13:29:05;102566.80;;;8.93;70.52
28701;BME280;15877;52.344;16.790;2023-02-13T13:31:39;102568.64;;;8.96;70.23
28701;BME280;15877;52.344;16.790;2023-02-13T13:34:16;102567.15;;;8.92;70.43
28701;BME280;15877;52.344;16.790;2023-02-13T13:36:55;102558.95;;;8.92;70.01
28701;BME280;15877;52.344;16.790;2023-02-13T13:39:39;102555.66;;;8.85;70.29
28701;BME280;15877;52.344;16.790;2023-02-13T13:42:19;102553.64;;;8.84;70.44
28701;BME280;15877;52.344;16.790;2023-02-13T13:45:07;102549.55;;;8.87;70.39
28701;BME280;15877;52.344;16.790;2023-02-13T13:47:56;102537.07;;;8.84;69.93
28701;BME280;15877;52.344;16.790;2023-02-13T13:50:40;102526.45;;;8.81;69.79
28701;BME280;15877;52.344;16.790;2023-02-13T13:53:16;102522.84;;;8.83;69.61
28701;BME280;15877;52.344;16.790;2023-02-13T13:56:07;102516.42;;;8.88;69.47
28701;BME280;15877;52.344;16.790;2023-02-13T13:58:45;102512.91;;;8.90;69.33
28701;BME280;15877;52.344;16.790;2023-02-13T14:01:25;102515.58;;;8.89;69.37
28701;BME280;15877;52.344;16.790;2023-02-13T14:04:00;102536.45;;;8.94;68.95
28701;BME280;15877;52.344;16.790;2023-02-13T14:09:41;102518.21;;;8.81;68.70